createdAt,value
2019-02-17T00:03:38.427Z,8.00
2019-02-17T00:08:39.530Z,7.63
2019-02-17T00:13:40.623Z,7.17
2019-02-17T00:18:41.758Z,8.93
2019-02-17T00:23:42.843Z,9.00
2019-02-17T00:28:44.176Z,9.37
2019-02-17T00:33:46.146Z,8.30
2019-02-17T00:38:47.258Z,8.60
2019-02-17T00:43:48.372Z,8.30
2019-02-17T00:48:49.492Z,8.07
2019-02-17T00:53:50.707Z,8.03
2019-02-17T00:58:51.811Z,8.37
2019-02-17T01:03:52.903Z,8.10
2019-02-17T01:08:54.008Z,7.60
2019-02-17T01:13:55.099Z,7.90
2019-02-17T01:18:56.243Z,6.97
2019-02-17T01:23:57.335Z,7.93
2019-02-17T01:28:58.440Z,6.97
2019-02-17T01:34:08.355Z,6.90
2019-02-17T01:39:09.480Z,6.43
2019-02-17T01:44:10.595Z,6.37
2019-02-17T01:49:11.704Z,6.50
2019-02-17T01:54:12.836Z,5.53
2019-02-17T01:59:13.933Z,6.60
2019-02-17T02:04:15.140Z,5.17
2019-02-17T02:09:16.237Z,5.90
2019-02-17T02:14:17.344Z,5.03
2019-02-17T02:19:18.471Z,5.00
2019-02-17T02:24:19.561Z,5.93
2019-02-17T02:29:20.670Z,4.60
2019-02-17T02:34:21.759Z,4.77
2019-02-17T02:39:22.859Z,4.60
2019-02-17T02:44:23.977Z,4.77
2019-02-17T02:49:25.074Z,4.90
2019-02-17T02:54:26.259Z,4.80
2019-02-17T02:59:27.355Z,5.03
2019-02-17T03:04:28.498Z,4.83
2019-02-17T03:09:29.620Z,4.50
2019-02-17T03:14:30.924Z,5.03
2019-02-17T03:19:32.039Z,4.77
2019-02-17T03:24:33.136Z,4.93
2019-02-17T03:29:34.242Z,4.97
2019-02-17T03:34:35.352Z,4.93
2019-02-17T03:39:36.459Z,5.40
2019-02-17T03:44:37.564Z,5.23
2019-02-17T03:49:38.674Z,5.13
2019-02-17T03:54:39.764Z,4.63
2019-02-17T03:59:40.862Z,4.20
2019-02-17T04:04:41.946Z,4.27
2019-02-17T04:09:43.039Z,4.37
2019-02-17T04:14:44.150Z,5.10
2019-02-17T04:19:45.252Z,4.00
2019-02-17T04:24:46.339Z,3.87
2019-02-17T04:29:47.461Z,3.80
2019-02-17T04:34:48.544Z,4.83
2019-02-17T04:39:49.668Z,5.20
2019-02-17T04:44:50.907Z,5.30
2019-02-17T04:49:52.100Z,4.30
2019-02-17T04:54:53.411Z,4.40
2019-02-17T04:59:54.483Z,4.83
2019-02-17T05:04:55.591Z,4.60
2019-02-17T05:09:56.668Z,4.80
2019-02-17T05:14:57.755Z,4.60
2019-02-17T05:19:58.866Z,4.87
2019-02-17T05:24:59.962Z,4.90
2019-02-17T05:30:01.162Z,5.07
2019-02-17T05:35:03.657Z,4.30
2019-02-17T05:40:05.609Z,4.63
2019-02-17T05:45:07.790Z,4.43
2019-02-17T05:50:08.976Z,4.57
2019-02-17T05:55:10.075Z,4.97
2019-02-17T06:00:12.568Z,5.17
2019-02-17T06:05:13.660Z,6.87
2019-02-17T06:10:14.750Z,4.67
2019-02-17T06:15:15.864Z,9.27
2019-02-17T06:20:16.963Z,8.50
2019-02-17T06:25:18.073Z,12.97
2019-02-17T06:30:19.190Z,4.97
2019-02-17T06:35:20.287Z,5.60
2019-02-17T06:40:21.380Z,4.83
2019-02-17T06:45:22.625Z,4.97
2019-02-17T06:50:23.828Z,4.93
2019-02-17T06:55:29.596Z,4.50
2019-02-17T07:00:35.515Z,4.63
2019-02-17T07:05:38.596Z,5.13
2019-02-17T07:10:39.675Z,5.57
2019-02-17T07:15:40.788Z,7.17
2019-02-17T07:20:41.996Z,7.17
2019-02-17T07:25:43.088Z,9.87
2019-02-17T07:30:44.183Z,10.97
2019-02-17T07:35:45.275Z,8.93
2019-02-17T07:40:46.496Z,8.80
2019-02-17T07:45:47.623Z,10.87
2019-02-17T07:50:48.703Z,9.57
2019-02-17T07:55:49.912Z,9.33
2019-02-17T08:00:51.026Z,9.90
2019-02-17T08:05:52.213Z,22.83
2019-02-17T08:11:03.471Z,14.60
2019-02-17T08:15:56.354Z,11.87
2019-02-17T08:20:57.464Z,9.30
2019-02-17T08:25:58.559Z,10.50
2019-02-17T08:30:59.656Z,11.63
2019-02-17T08:36:00.770Z,9.70
2019-02-17T08:41:01.900Z,8.70
2019-02-17T08:46:03.134Z,8.40
2019-02-17T08:51:04.235Z,9.43
2019-02-17T08:56:05.340Z,8.90
2019-02-17T09:01:06.447Z,11.70
2019-02-17T09:06:07.548Z,12.20
2019-02-17T09:11:08.685Z,12.40
2019-02-17T09:16:09.814Z,12.80
2019-02-17T09:26:29.741Z,15.50
2019-02-17T09:31:31.018Z,12.97
2019-02-17T09:36:32.138Z,11.93
2019-02-17T09:41:33.238Z,12.77
2019-02-17T09:46:34.535Z,12.20
2019-02-17T09:51:35.647Z,11.40
2019-02-17T09:56:36.775Z,12.30
2019-02-17T10:01:37.884Z,12.07
2019-02-17T10:06:38.993Z,12.07
2019-02-17T10:11:40.408Z,12.47
2019-02-17T10:16:41.558Z,12.50
2019-02-17T10:21:42.673Z,10.73
2019-02-17T10:26:43.813Z,11.30
2019-02-17T10:31:44.941Z,10.53
2019-02-17T10:36:46.128Z,11.53
2019-02-17T10:41:47.347Z,12.10
2019-02-17T10:46:48.622Z,12.30
2019-02-17T10:51:49.869Z,11.67
2019-02-17T10:56:51.167Z,11.60
2019-02-17T11:01:52.272Z,11.77
2019-02-17T11:06:53.379Z,11.83
2019-02-17T11:11:54.473Z,12.00
2019-02-17T11:16:55.638Z,12.53
2019-02-17T11:21:56.749Z,12.10
2019-02-17T11:26:57.887Z,12.07
2019-02-17T11:31:59.011Z,12.30
2019-02-17T11:37:00.212Z,11.60
2019-02-17T11:42:01.428Z,12.03
2019-02-17T11:47:02.659Z,10.80
2019-02-17T11:52:03.862Z,11.33
2019-02-17T11:57:05.883Z,10.00
2019-02-17T12:02:07.020Z,12.27
2019-02-17T12:07:08.117Z,9.87
2019-02-17T12:12:09.326Z,11.83
2019-02-17T12:17:10.572Z,12.03
2019-02-17T12:22:13.871Z,11.50
2019-02-17T12:27:19.954Z,12.07
2019-02-17T12:32:23.022Z,12.47
2019-02-17T12:37:24.192Z,11.40
2019-02-17T12:42:25.311Z,11.67
2019-02-17T12:47:26.476Z,10.57
2019-02-17T12:52:27.785Z,11.83
2019-02-17T12:57:28.892Z,11.30
2019-02-17T13:02:30.017Z,9.70
2019-02-17T13:07:31.148Z,8.63
2019-02-17T13:12:32.276Z,8.70
2019-02-17T13:17:33.420Z,9.07
2019-02-17T13:22:34.520Z,8.50
2019-02-17T13:27:35.637Z,8.00
2019-02-17T13:32:36.748Z,6.97
2019-02-17T13:37:37.900Z,7.30
2019-02-17T13:42:38.984Z,6.50
2019-02-17T13:47:40.307Z,6.58
2019-02-17T13:52:41.614Z,6.85
2019-02-17T13:57:42.720Z,6.15
2019-02-17T14:02:43.841Z,5.90
2019-02-17T14:07:44.943Z,6.27
2019-02-17T14:12:46.160Z,5.90
2019-02-17T14:17:47.402Z,4.80
2019-02-17T14:22:48.532Z,4.37
2019-02-17T14:27:49.796Z,5.03
2019-02-17T14:32:50.916Z,6.35
2019-02-17T14:37:52.069Z,4.08
2019-02-17T14:42:55.350Z,4.30
2019-02-17T14:47:56.280Z,4.03
2019-02-17T14:52:57.375Z,3.92
2019-02-17T14:58:04.974Z,3.10
2019-02-17T15:03:01.517Z,3.40
2019-02-17T15:08:02.725Z,3.70
2019-02-17T15:13:03.862Z,3.12
2019-02-17T15:18:04.986Z,3.08
2019-02-17T15:23:06.088Z,3.15
2019-02-17T15:28:07.220Z,4.45
2019-02-17T15:33:08.365Z,7.92
2019-02-17T15:38:09.482Z,6.87
2019-02-17T15:43:10.610Z,6.58
2019-02-17T15:48:11.720Z,5.47
2019-02-17T15:53:12.845Z,5.80
2019-02-17T15:58:14.029Z,5.50
2019-02-17T16:03:15.153Z,6.73
2019-02-17T16:08:16.249Z,9.23
2019-02-17T16:13:17.529Z,8.03
2019-02-17T16:18:18.659Z,5.77
2019-02-17T16:23:19.768Z,5.30
2019-02-17T16:28:20.905Z,4.97
2019-02-17T16:33:22.049Z,6.27
2019-02-17T16:38:23.292Z,6.70
2019-02-17T16:43:24.438Z,7.23
2019-02-17T16:48:25.638Z,7.13
2019-02-17T16:53:26.770Z,7.77
2019-02-17T16:58:28.015Z,6.20
2019-02-17T17:03:29.335Z,6.60
2019-02-17T17:08:30.539Z,6.50
2019-02-17T17:13:31.683Z,6.13
2019-02-17T17:18:33.560Z,6.63
2019-02-17T17:23:34.725Z,9.10
2019-02-17T17:28:36.077Z,10.53
2019-02-17T17:33:37.266Z,12.73
2019-02-17T17:38:38.407Z,15.83
2019-02-17T17:43:39.663Z,16.30
2019-02-17T17:48:40.880Z,13.40
2019-02-17T17:53:42.108Z,17.50
2019-02-17T17:58:43.452Z,7.60
2019-02-17T18:03:44.590Z,10.77
2019-02-17T18:08:45.808Z,10.33
2019-02-17T18:13:46.909Z,10.73
2019-02-17T18:18:48.084Z,10.00
2019-02-17T18:23:49.195Z,7.50
2019-02-17T18:28:50.526Z,7.93
2019-02-17T18:33:51.674Z,10.97
2019-02-17T18:38:52.836Z,7.73
2019-02-17T18:43:54.180Z,5.97
2019-02-17T18:48:55.666Z,6.70
2019-02-17T18:53:56.969Z,5.47
2019-02-17T18:58:58.200Z,5.10
2019-02-17T19:03:59.461Z,3.73
2019-02-17T19:09:02.556Z,3.37
2019-02-17T19:14:03.880Z,3.47
2019-02-17T19:19:05.025Z,3.40
2019-02-17T19:24:06.157Z,2.90
2019-02-17T19:29:11.528Z,3.40
2019-02-17T19:34:10.366Z,3.27
2019-02-17T19:39:11.572Z,3.77
2019-02-17T19:44:12.801Z,4.23
2019-02-17T19:49:13.941Z,4.30
2019-02-17T19:54:15.183Z,4.20
2019-02-17T19:59:16.420Z,4.00
2019-02-17T20:04:25.534Z,4.17
2019-02-17T20:09:26.739Z,3.40
2019-02-17T20:14:27.965Z,3.70
2019-02-17T20:19:29.116Z,4.37
2019-02-17T20:24:30.247Z,4.57
2019-02-17T20:29:31.489Z,5.57
2019-02-17T20:34:32.573Z,5.33
2019-02-17T20:39:33.821Z,3.57
2019-02-17T20:44:35.047Z,4.07
2019-02-17T20:49:36.156Z,3.70
2019-02-17T20:54:37.272Z,3.83
2019-02-17T20:59:38.419Z,3.70
2019-02-17T21:04:39.635Z,6.60
2019-02-17T21:09:40.742Z,7.97
2019-02-17T21:14:41.956Z,3.23
2019-02-17T21:19:43.182Z,3.50
2019-02-17T21:24:44.355Z,3.77
2019-02-17T21:29:45.634Z,2.70
2019-02-17T21:34:46.765Z,2.50
2019-02-17T21:39:47.878Z,2.80
2019-02-17T21:44:48.992Z,3.13
2019-02-17T21:49:50.133Z,2.67
2019-02-17T21:54:51.338Z,3.00
2019-02-17T21:59:52.456Z,4.00
2019-02-17T22:04:53.580Z,3.27
2019-02-17T22:09:54.673Z,4.90
2019-02-17T22:14:55.820Z,5.73
2019-02-17T22:19:56.943Z,3.33
2019-02-17T22:24:58.030Z,3.27
2019-02-17T22:29:59.127Z,3.00
2019-02-17T22:35:00.363Z,2.77
2019-02-17T22:40:02.141Z,2.63
2019-02-17T22:45:06.353Z,2.70
2019-02-17T22:50:14.343Z,2.90
2019-02-17T22:55:15.534Z,2.97
2019-02-17T23:00:39.710Z,2.40
2019-02-17T23:05:41.023Z,2.00
2019-02-17T23:10:42.127Z,2.20
2019-02-17T23:15:43.250Z,1.73
2019-02-17T23:20:44.474Z,2.20
2019-02-17T23:25:45.579Z,2.47
2019-02-17T23:30:46.689Z,2.30
2019-02-17T23:35:47.786Z,1.60
2019-02-17T23:40:48.881Z,2.70
2019-02-17T23:45:50.006Z,2.50
2019-02-17T23:50:51.118Z,2.00
2019-02-17T23:55:52.227Z,1.83
